sensor_id;sensor_type;location;lat;lon;timestamp;P1;durP1;ratioP1;P2;durP2;ratioP2
18983;SDS011;9626;52.552;13.436;2023-04-01T00:01:41;2.90;;;2.20;;
18983;SDS011;9626;52.552;13.436;2023-04-01T00:04:07;3.10;;;2.40;;
18983;SDS011;9626;52.552;13.436;2023-04-01T00:06:33;3.13;;;2.27;;
18983;SDS011;9626;52.552;13.436;2023-04-01T00:08:59;2.97;;;2.40;;
18983;SDS011;9626;52.552;13.436;2023-04-01T00:11:25;4.27;;;2.03;;
18983;SDS011;9626;52.552;13.436;2023-04-01T00:13:53;2.87;;;2.40;;
18983;SDS011;9626;52.552;13.436;2023-04-01T00:16:19;3.97;;;2.50;;
18983;SDS011;9626;52.552;13.436;2023-04-01T00:18:45;3.63;;;2.60;;
18983;SDS011;9626;52.552;13.436;2023-04-01T00:21:13;3.30;;;2.20;;
18983;SDS011;9626;52.552;13.436;2023-04-01T00:23:40;2.80;;;2.30;;
18983;SDS011;9626;52.552;13.436;2023-04-01T00:26:06;2.67;;;1.77;;
18983;SDS011;9626;52.552;13.436;2023-04-01T00:28:33;3.47;;;2.13;;
18983;SDS011;9626;52.552;13.436;2023-04-01T00:31:04;2.70;;;2.23;;
18983;SDS011;9626;52.552;13.436;2023-04-01T00:33:31;2.73;;;2.20;;
18983;SDS011;9626;52.552;13.436;2023-04-01T00:36:19;4.47;;;2.07;;
18983;SDS011;9626;52.552;13.436;2023-04-01T00:38:45;2.40;;;2.00;;
18983;SDS011;9626;52.552;13.436;2023-04-01T00:41:12;4.27;;;2.20;;
18983;SDS011;9626;52.552;13.436;2023-04-01T00:43:41;3.23;;;2.20;;
18983;SDS011;9626;52.552;13.436;2023-04-01T00:46:08;2.83;;;2.43;;
18983;SDS011;9626;52.552;13.436;2023-04-01T00:48:35;3.13;;;2.00;;
18983;SDS011;9626;52.552;13.436;2023-04-01T00:51:05;5.10;;;2.30;;
18983;SDS011;9626;52.552;13.436;2023-04-01T00:53:34;4.30;;;2.20;;
18983;SDS011;9626;52.552;13.436;2023-04-01T00:58:59;4.87;;;2.20;;
18983;SDS011;9626;52.552;13.436;2023-04-01T01:01:27;3.87;;;2.33;;
18983;SDS011;9626;52.552;13.436;2023-04-01T01:03:56;2.83;;;2.07;;
18983;SDS011;9626;52.552;13.436;2023-04-01T01:06:26;4.63;;;2.20;;
18983;SDS011;9626;52.552;13.436;2023-04-01T01:09:06;4.23;;;2.57;;
18983;SDS011;9626;52.552;13.436;2023-04-01T01:16:53;3.90;;;2.20;;
18983;SDS011;9626;52.552;13.436;2023-04-01T01:19:48;4.50;;;2.57;;
18983;SDS011;9626;52.552;13.436;2023-04-01T01:22:36;4.57;;;2.40;;
18983;SDS011;9626;52.552;13.436;2023-04-01T01:28:15;3.33;;;2.40;;
18983;SDS011;9626;52.552;13.436;2023-04-01T01:30:51;3.20;;;2.37;;
18983;SDS011;9626;52.552;13.436;2023-04-01T01:33:54;4.43;;;2.60;;
18983;SDS011;9626;52.552;13.436;2023-04-01T01:36:15;3.60;;;2.40;;
18983;SDS011;9626;52.552;13.436;2023-04-01T01:38:43;2.83;;;2.10;;
18983;SDS011;9626;52.552;13.436;2023-04-01T01:41:11;3.73;;;2.10;;
18983;SDS011;9626;52.552;13.436;2023-04-01T01:43:40;4.40;;;2.50;;
18983;SDS011;9626;52.552;13.436;2023-04-01T01:46:13;4.40;;;2.17;;
18983;SDS011;9626;52.552;13.436;2023-04-01T01:48:43;5.67;;;2.70;;
18983;SDS011;9626;52.552;13.436;2023-04-01T01:51:11;4.40;;;2.17;;
18983;SDS011;9626;52.552;13.436;2023-04-01T01:53:37;3.77;;;2.03;;
18983;SDS011;9626;52.552;13.436;2023-04-01T01:56:04;4.23;;;2.30;;
18983;SDS011;9626;52.552;13.436;2023-04-01T01:58:35;4.67;;;2.60;;
18983;SDS011;9626;52.552;13.436;2023-04-01T02:01:17;3.57;;;2.27;;
18983;SDS011;9626;52.552;13.436;2023-04-01T02:03:55;4.57;;;2.70;;
18983;SDS011;9626;52.552;13.436;2023-04-01T02:06:23;4.20;;;2.87;;
18983;SDS011;9626;52.552;13.436;2023-04-01T02:08:53;5.73;;;2.73;;
18983;SDS011;9626;52.552;13.436;2023-04-01T02:11:48;3.60;;;2.53;;
18983;SDS011;9626;52.552;13.436;2023-04-01T02:19:54;3.50;;;2.23;;
18983;SDS011;9626;52.552;13.436;2023-04-01T02:22:28;4.17;;;2.17;;
18983;SDS011;9626;52.552;13.436;2023-04-01T02:24:58;4.83;;;2.10;;
18983;SDS011;9626;52.552;13.436;2023-04-01T02:27:28;4.70;;;2.30;;
18983;SDS011;9626;52.552;13.436;2023-04-01T02:29:56;4.47;;;2.27;;
18983;SDS011;9626;52.552;13.436;2023-04-01T02:32:23;4.10;;;2.00;;
18983;SDS011;9626;52.552;13.436;2023-04-01T02:34:51;5.43;;;2.30;;
18983;SDS011;9626;52.552;13.436;2023-04-01T02:37:17;4.40;;;1.87;;
18983;SDS011;9626;52.552;13.436;2023-04-01T02:39:44;4.13;;;1.80;;
18983;SDS011;9626;52.552;13.436;2023-04-01T02:42:10;5.33;;;2.10;;
18983;SDS011;9626;52.552;13.436;2023-04-01T02:44:36;5.97;;;2.43;;
18983;SDS011;9626;52.552;13.436;2023-04-01T02:47:02;4.00;;;1.60;;
18983;SDS011;9626;52.552;13.436;2023-04-01T02:49:28;2.80;;;1.83;;
18983;SDS011;9626;52.552;13.436;2023-04-01T02:51:54;4.37;;;1.93;;
18983;SDS011;9626;52.552;13.436;2023-04-01T02:54:20;2.80;;;1.63;;
18983;SDS011;9626;52.552;13.436;2023-04-01T02:56:47;3.40;;;1.80;;
18983;SDS011;9626;52.552;13.436;2023-04-01T02:59:13;2.77;;;1.80;;
18983;SDS011;9626;52.552;13.436;2023-04-01T03:01:39;4.00;;;2.10;;
18983;SDS011;9626;52.552;13.436;2023-04-01T03:04:05;5.50;;;2.27;;
18983;SDS011;9626;52.552;13.436;2023-04-01T03:06:31;3.10;;;2.10;;
18983;SDS011;9626;52.552;13.436;2023-04-01T03:08:58;2.97;;;1.90;;
18983;SDS011;9626;52.552;13.436;2023-04-01T03:11:24;4.67;;;2.33;;
18983;SDS011;9626;52.552;13.436;2023-04-01T03:13:51;3.50;;;2.17;;
18983;SDS011;9626;52.552;13.436;2023-04-01T03:16:17;3.83;;;1.93;;
18983;SDS011;9626;52.552;13.436;2023-04-01T03:18:43;4.13;;;2.10;;
18983;SDS011;9626;52.552;13.436;2023-04-01T03:21:16;3.23;;;2.10;;
18983;SDS011;9626;52.552;13.436;2023-04-01T03:23:44;4.47;;;2.30;;
18983;SDS011;9626;52.552;13.436;2023-04-01T03:26:10;3.10;;;1.90;;
18983;SDS011;9626;52.552;13.436;2023-04-01T03:28:36;5.00;;;2.10;;
18983;SDS011;9626;52.552;13.436;2023-04-01T03:31:02;5.83;;;2.73;;
18983;SDS011;9626;52.552;13.436;2023-04-01T03:33:29;3.77;;;2.33;;
18983;SDS011;9626;52.552;13.436;2023-04-01T03:35:55;4.83;;;2.10;;
18983;SDS011;9626;52.552;13.436;2023-04-01T03:38:21;4.23;;;2.10;;
18983;SDS011;9626;52.552;13.436;2023-04-01T03:40:47;4.27;;;2.23;;
18983;SDS011;9626;52.552;13.436;2023-04-01T03:43:13;5.00;;;2.50;;
18983;SDS011;9626;52.552;13.436;2023-04-01T03:45:49;4.27;;;2.40;;
18983;SDS011;9626;52.552;13.436;2023-04-01T03:48:17;3.70;;;2.23;;
18983;SDS011;9626;52.552;13.436;2023-04-01T03:50:44;4.47;;;2.40;;
18983;SDS011;9626;52.552;13.436;2023-04-01T03:53:10;4.67;;;2.30;;
18983;SDS011;9626;52.552;13.436;2023-04-01T03:55:36;2.80;;;2.33;;
18983;SDS011;9626;52.552;13.436;2023-04-01T03:58:03;4.93;;;1.83;;
18983;SDS011;9626;52.552;13.436;2023-04-01T04:00:30;4.90;;;2.30;;
18983;SDS011;9626;52.552;13.436;2023-04-01T04:02:57;6.70;;;2.60;;
18983;SDS011;9626;52.552;13.436;2023-04-01T04:05:24;4.53;;;2.40;;
18983;SDS011;9626;52.552;13.436;2023-04-01T04:07:51;3.07;;;2.07;;
18983;SDS011;9626;52.552;13.436;2023-04-01T04:10:17;3.40;;;2.07;;
18983;SDS011;9626;52.552;13.436;2023-04-01T04:12:44;4.40;;;2.07;;
18983;SDS011;9626;52.552;13.436;2023-04-01T04:15:11;3.90;;;2.70;;
18983;SDS011;9626;52.552;13.436;2023-04-01T04:17:37;4.93;;;2.57;;
18983;SDS011;9626;52.552;13.436;2023-04-01T04:20:04;10.53;;;6.80;;
18983;SDS011;9626;52.552;13.436;2023-04-01T04:22:30;6.07;;;2.87;;
18983;SDS011;9626;52.552;13.436;2023-04-01T04:24:56;5.03;;;2.27;;
18983;SDS011;9626;52.552;13.436;2023-04-01T04:27:24;4.87;;;2.60;;
18983;SDS011;9626;52.552;13.436;2023-04-01T04:29:50;5.77;;;2.60;;
18983;SDS011;9626;52.552;13.436;2023-04-01T04:32:17;4.23;;;2.60;;
18983;SDS011;9626;52.552;13.436;2023-04-01T04:34:43;3.63;;;2.30;;
18983;SDS011;9626;52.552;13.436;2023-04-01T04:37:09;4.97;;;2.73;;
18983;SDS011;9626;52.552;13.436;2023-04-01T04:39:35;3.60;;;2.40;;
18983;SDS011;9626;52.552;13.436;2023-04-01T04:42:02;4.77;;;2.33;;
18983;SDS011;9626;52.552;13.436;2023-04-01T04:44:28;4.70;;;2.53;;
18983;SDS011;9626;52.552;13.436;2023-04-01T04:46:54;4.63;;;2.40;;
18983;SDS011;9626;52.552;13.436;2023-04-01T04:49:20;5.17;;;2.47;;
18983;SDS011;9626;52.552;13.436;2023-04-01T04:51:46;5.03;;;2.80;;
18983;SDS011;9626;52.552;13.436;2023-04-01T04:54:12;6.57;;;3.00;;
18983;SDS011;9626;52.552;13.436;2023-04-01T04:56:38;6.30;;;2.97;;
18983;SDS011;9626;52.552;13.436;2023-04-01T04:59:04;7.93;;;3.17;;
18983;SDS011;9626;52.552;13.436;2023-04-01T05:01:31;4.93;;;2.87;;
18983;SDS011;9626;52.552;13.436;2023-04-01T05:03:57;5.07;;;2.97;;
18983;SDS011;9626;52.552;13.436;2023-04-01T05:06:23;7.43;;;3.03;;
18983;SDS011;9626;52.552;13.436;2023-04-01T05:08:51;4.93;;;3.17;;
18983;SDS011;9626;52.552;13.436;2023-04-01T05:11:18;4.73;;;3.07;;
18983;SDS011;9626;52.552;13.436;2023-04-01T05:13:45;6.57;;;3.17;;
18983;SDS011;9626;52.552;13.436;2023-04-01T05:16:13;7.83;;;3.90;;
18983;SDS011;9626;52.552;13.436;2023-04-01T05:18:41;6.17;;;3.40;;
18983;SDS011;9626;52.552;13.436;2023-04-01T05:21:07;7.20;;;3.27;;
18983;SDS011;9626;52.552;13.436;2023-04-01T05:23:35;6.10;;;3.53;;
18983;SDS011;9626;52.552;13.436;2023-04-01T05:26:05;6.43;;;3.60;;
18983;SDS011;9626;52.552;13.436;2023-04-01T05:28:33;6.77;;;4.60;;
18983;SDS011;9626;52.552;13.436;2023-04-01T05:31:00;8.10;;;4.33;;
18983;SDS011;9626;52.552;13.436;2023-04-01T05:33:27;5.77;;;3.93;;
18983;SDS011;9626;52.552;13.436;2023-04-01T05:35:53;5.87;;;3.30;;
18983;SDS011;9626;52.552;13.436;2023-04-01T05:38:20;5.83;;;3.10;;
18983;SDS011;9626;52.552;13.436;2023-04-01T05:40:46;9.83;;;4.33;;
18983;SDS011;9626;52.552;13.436;2023-04-01T05:43:13;7.10;;;3.57;;
18983;SDS011;9626;52.552;13.436;2023-04-01T05:45:39;5.53;;;3.07;;
18983;SDS011;9626;52.552;13.436;2023-04-01T05:48:05;7.00;;;3.30;;
18983;SDS011;9626;52.552;13.436;2023-04-01T05:50:31;6.20;;;3.90;;
18983;SDS011;9626;52.552;13.436;2023-04-01T05:52:57;5.13;;;3.50;;
18983;SDS011;9626;52.552;13.436;2023-04-01T05:55:23;7.43;;;3.67;;
18983;SDS011;9626;52.552;13.436;2023-04-01T05:57:49;6.80;;;3.43;;
18983;SDS011;9626;52.552;13.436;2023-04-01T06:00:16;7.23;;;3.30;;
18983;SDS011;9626;52.552;13.436;2023-04-01T06:02:43;7.63;;;3.70;;
18983;SDS011;9626;52.552;13.436;2023-04-01T06:07:50;7.40;;;4.17;;
18983;SDS011;9626;52.552;13.436;2023-04-01T06:10:22;6.83;;;4.30;;
18983;SDS011;9626;52.552;13.436;2023-04-01T06:18:59;6.57;;;3.80;;
18983;SDS011;9626;52.552;13.436;2023-04-01T06:21:54;9.17;;;4.20;;
18983;SDS011;9626;52.552;13.436;2023-04-01T06:30:24;11.53;;;4.10;;
18983;SDS011;9626;52.552;13.436;2023-04-01T06:41:35;7.83;;;4.23;;
18983;SDS011;9626;52.552;13.436;2023-04-01T06:44:16;8.27;;;4.43;;
18983;SDS011;9626;52.552;13.436;2023-04-01T06:46:44;8.67;;;5.10;;
18983;SDS011;9626;52.552;13.436;2023-04-01T06:56:58;5.80;;;4.20;;
18983;SDS011;9626;52.552;13.436;2023-04-01T06:59:47;11.80;;;6.27;;
18983;SDS011;9626;52.552;13.436;2023-04-01T07:04:50;8.43;;;4.53;;
18983;SDS011;9626;52.552;13.436;2023-04-01T07:09:55;9.23;;;6.03;;
18983;SDS011;9626;52.552;13.436;2023-04-01T07:14:57;8.47;;;5.70;;
18983;SDS011;9626;52.552;13.436;2023-04-01T07:17:30;9.17;;;5.47;;
18983;SDS011;9626;52.552;13.436;2023-04-01T07:20:02;9.90;;;5.93;;
18983;SDS011;9626;52.552;13.436;2023-04-01T07:22:38;8.57;;;5.40;;
18983;SDS011;9626;52.552;13.436;2023-04-01T07:25:14;8.77;;;5.30;;
18983;SDS011;9626;52.552;13.436;2023-04-01T07:27:44;6.97;;;5.00;;
18983;SDS011;9626;52.552;13.436;2023-04-01T07:30:21;10.20;;;5.67;;
18983;SDS011;9626;52.552;13.436;2023-04-01T07:32:51;9.33;;;5.90;;
18983;SDS011;9626;52.552;13.436;2023-04-01T07:35:30;8.77;;;6.63;;
18983;SDS011;9626;52.552;13.436;2023-04-01T07:38:12;9.00;;;6.37;;
18983;SDS011;9626;52.552;13.436;2023-04-01T07:51:38;8.23;;;5.70;;
18983;SDS011;9626;52.552;13.436;2023-04-01T07:57:35;5.20;;;4.67;;
18983;SDS011;9626;52.552;13.436;2023-04-01T08:03:02;3.60;;;2.83;;
18983;SDS011;9626;52.552;13.436;2023-04-01T08:13:42;3.53;;;3.20;;
18983;SDS011;9626;52.552;13.436;2023-04-01T08:19:13;3.43;;;3.13;;
18983;SDS011;9626;52.552;13.436;2023-04-01T08:22:01;3.60;;;3.27;;
18983;SDS011;9626;52.552;13.436;2023-04-01T08:24:41;4.23;;;3.83;;
18983;SDS011;9626;52.552;13.436;2023-04-01T08:27:14;4.40;;;4.00;;
18983;SDS011;9626;52.552;13.436;2023-04-01T08:29:56;4.97;;;4.13;;
18983;SDS011;9626;52.552;13.436;2023-04-01T08:32:32;6.10;;;4.87;;
18983;SDS011;9626;52.552;13.436;2023-04-01T08:35:20;5.63;;;4.83;;
18983;SDS011;9626;52.552;13.436;2023-04-01T08:37:53;5.73;;;5.13;;
18983;SDS011;9626;52.552;13.436;2023-04-01T09:19:21;9.13;;;8.30;;
18983;SDS011;9626;52.552;13.436;2023-04-01T09:41:31;9.70;;;8.73;;
18983;SDS011;9626;52.552;13.436;2023-04-01T09:44:03;9.53;;;8.60;;
18983;SDS011;9626;52.552;13.436;2023-04-01T10:09:33;8.40;;;7.70;;
18983;SDS011;9626;52.552;13.436;2023-04-01T10:28:56;7.80;;;7.20;;
18983;SDS011;9626;52.552;13.436;2023-04-01T10:40:41;9.20;;;8.47;;
18983;SDS011;9626;52.552;13.436;2023-04-01T10:43:58;8.63;;;7.83;;
18983;SDS011;9626;52.552;13.436;2023-04-01T11:01:04;9.07;;;8.27;;
18983;SDS011;9626;52.552;13.436;2023-04-01T11:16:03;7.93;;;7.13;;
18983;SDS011;9626;52.552;13.436;2023-04-01T11:18:49;7.80;;;7.10;;
18983;SDS011;9626;52.552;13.436;2023-04-01T11:30:09;7.00;;;6.30;;
18983;SDS011;9626;52.552;13.436;2023-04-01T11:35:44;7.17;;;6.57;;
18983;SDS011;9626;52.552;13.436;2023-04-01T11:41:32;7.40;;;6.80;;
18983;SDS011;9626;52.552;13.436;2023-04-01T11:44:16;7.33;;;6.70;;
18983;SDS011;9626;52.552;13.436;2023-04-01T12:12:29;8.63;;;7.83;;
18983;SDS011;9626;52.552;13.436;2023-04-01T12:15:16;7.43;;;6.83;;
18983;SDS011;9626;52.552;13.436;2023-04-01T12:18:07;6.50;;;6.00;;
18983;SDS011;9626;52.552;13.436;2023-04-01T12:21:02;9.23;;;7.67;;
18983;SDS011;9626;52.552;13.436;2023-04-01T12:32:30;10.80;;;8.50;;
18983;SDS011;9626;52.552;13.436;2023-04-01T12:37:55;8.80;;;8.00;;
18983;SDS011;9626;52.552;13.436;2023-04-01T12:45:54;9.97;;;9.07;;
18983;SDS011;9626;52.552;13.436;2023-04-01T12:51:41;10.97;;;10.03;;
18983;SDS011;9626;52.552;13.436;2023-04-01T13:03:12;10.63;;;9.63;;
18983;SDS011;9626;52.552;13.436;2023-04-01T13:06:07;11.63;;;10.63;;
18983;SDS011;9626;52.552;13.436;2023-04-01T13:20:36;11.63;;;10.47;;
18983;SDS011;9626;52.552;13.436;2023-04-01T13:23:09;10.70;;;9.60;;
18983;SDS011;9626;52.552;13.436;2023-04-01T13:25:58;10.47;;;9.47;;
18983;SDS011;9626;52.552;13.436;2023-04-01T13:28:34;9.97;;;9.07;;
18983;SDS011;9626;52.552;13.436;2023-04-01T13:34:04;8.97;;;8.27;;
18983;SDS011;9626;52.552;13.436;2023-04-01T13:40:04;8.73;;;7.93;;
18983;SDS011;9626;52.552;13.436;2023-04-01T13:42:50;7.90;;;7.10;;
18983;SDS011;9626;52.552;13.436;2023-04-01T13:45:27;8.33;;;7.63;;
18983;SDS011;9626;52.552;13.436;2023-04-01T13:48:32;8.17;;;7.37;;
18983;SDS011;9626;52.552;13.436;2023-04-01T14:04:47;6.10;;;5.60;;
18983;SDS011;9626;52.552;13.436;2023-04-01T14:21:55;6.73;;;6.00;;
18983;SDS011;9626;52.552;13.436;2023-04-01T14:25:03;6.67;;;6.07;;
18983;SDS011;9626;52.552;13.436;2023-04-01T14:47:28;7.10;;;5.07;;
18983;SDS011;9626;52.552;13.436;2023-04-01T14:50:29;5.20;;;4.70;;
18983;SDS011;9626;52.552;13.436;2023-04-01T14:56:04;6.17;;;4.70;;
18983;SDS011;9626;52.552;13.436;2023-04-01T15:15:17;4.33;;;3.90;;
18983;SDS011;9626;52.552;13.436;2023-04-01T15:18:25;4.43;;;4.03;;
18983;SDS011;9626;52.552;13.436;2023-04-01T15:21:18;4.97;;;4.40;;
18983;SDS011;9626;52.552;13.436;2023-04-01T15:23:54;4.70;;;4.30;;
18983;SDS011;9626;52.552;13.436;2023-04-01T15:28:56;5.47;;;4.97;;
18983;SDS011;9626;52.552;13.436;2023-04-01T15:31:33;5.50;;;4.90;;
18983;SDS011;9626;52.552;13.436;2023-04-01T15:45:42;6.07;;;5.47;;
18983;SDS011;9626;52.552;13.436;2023-04-01T15:48:13;5.43;;;4.93;;
18983;SDS011;9626;52.552;13.436;2023-04-01T15:51:01;6.10;;;5.50;;
18983;SDS011;9626;52.552;13.436;2023-04-01T15:53:41;6.10;;;5.47;;
18983;SDS011;9626;52.552;13.436;2023-04-01T15:56:22;7.13;;;5.37;;
18983;SDS011;9626;52.552;13.436;2023-04-01T15:59:01;6.83;;;6.10;;
18983;SDS011;9626;52.552;13.436;2023-04-01T16:04:12;5.83;;;4.27;;
18983;SDS011;9626;52.552;13.436;2023-04-01T16:12:34;6.13;;;4.37;;
18983;SDS011;9626;52.552;13.436;2023-04-01T16:23:50;5.47;;;4.47;;
18983;SDS011;9626;52.552;13.436;2023-04-01T16:29:53;4.57;;;3.97;;
18983;SDS011;9626;52.552;13.436;2023-04-01T16:35:28;4.93;;;4.00;;
18983;SDS011;9626;52.552;13.436;2023-04-01T16:38:39;4.13;;;3.73;;
18983;SDS011;9626;52.552;13.436;2023-04-01T16:44:19;3.93;;;3.53;;
18983;SDS011;9626;52.552;13.436;2023-04-01T16:49:23;5.40;;;3.57;;
18983;SDS011;9626;52.552;13.436;2023-04-01T16:52:13;5.40;;;3.70;;
18983;SDS011;9626;52.552;13.436;2023-04-01T16:54:52;3.97;;;3.37;;
18983;SDS011;9626;52.552;13.436;2023-04-01T16:57:51;5.73;;;3.40;;
18983;SDS011;9626;52.552;13.436;2023-04-01T17:00:37;3.30;;;3.00;;
18983;SDS011;9626;52.552;13.436;2023-04-01T17:05:52;5.43;;;3.43;;
18983;SDS011;9626;52.552;13.436;2023-04-01T17:11:57;3.97;;;3.60;;
18983;SDS011;9626;52.552;13.436;2023-04-01T17:44:58;4.73;;;3.60;;
18983;SDS011;9626;52.552;13.436;2023-04-01T17:55:45;4.03;;;3.60;;
18983;SDS011;9626;52.552;13.436;2023-04-01T17:58:30;5.33;;;3.77;;
18983;SDS011;9626;52.552;13.436;2023-04-01T18:01:09;6.20;;;3.70;;
18983;SDS011;9626;52.552;13.436;2023-04-01T18:03:54;5.10;;;3.80;;
18983;SDS011;9626;52.552;13.436;2023-04-01T18:14:35;5.07;;;4.57;;
18983;SDS011;9626;52.552;13.436;2023-04-01T18:22:58;6.40;;;4.60;;
18983;SDS011;9626;52.552;13.436;2023-04-01T18:31:15;5.13;;;3.90;;
18983;SDS011;9626;52.552;13.436;2023-04-01T18:36:38;6.23;;;5.10;;
18983;SDS011;9626;52.552;13.436;2023-04-01T18:47:14;7.77;;;6.20;;
18983;SDS011;9626;52.552;13.436;2023-04-01T18:49:43;7.17;;;5.23;;
18983;SDS011;9626;52.552;13.436;2023-04-01T18:52:20;7.43;;;5.50;;
18983;SDS011;9626;52.552;13.436;2023-04-01T18:57:46;7.73;;;5.50;;
18983;SDS011;9626;52.552;13.436;2023-04-01T19:00:26;5.67;;;4.87;;
18983;SDS011;9626;52.552;13.436;2023-04-01T19:03:00;6.83;;;5.30;;
18983;SDS011;9626;52.552;13.436;2023-04-01T19:05:34;7.50;;;5.17;;
18983;SDS011;9626;52.552;13.436;2023-04-01T19:08:22;6.23;;;5.30;;
18983;SDS011;9626;52.552;13.436;2023-04-01T19:10:57;8.47;;;5.53;;
18983;SDS011;9626;52.552;13.436;2023-04-01T19:16:15;9.17;;;5.80;;
18983;SDS011;9626;52.552;13.436;2023-04-01T19:19:41;9.23;;;6.27;;
18983;SDS011;9626;52.552;13.436;2023-04-01T19:21:57;9.53;;;6.80;;
18983;SDS011;9626;52.552;13.436;2023-04-01T19:24:39;7.93;;;6.13;;
18983;SDS011;9626;52.552;13.436;2023-04-01T19:33:22;9.40;;;7.23;;
18983;SDS011;9626;52.552;13.436;2023-04-01T19:36:11;8.13;;;6.53;;
18983;SDS011;9626;52.552;13.436;2023-04-01T19:42:05;8.90;;;6.53;;
18983;SDS011;9626;52.552;13.436;2023-04-01T19:44:35;10.67;;;6.17;;
18983;SDS011;9626;52.552;13.436;2023-04-01T19:50:05;11.47;;;7.10;;
18983;SDS011;9626;52.552;13.436;2023-04-01T19:52:48;10.37;;;6.27;;
18983;SDS011;9626;52.552;13.436;2023-04-01T19:58:21;9.87;;;7.17;;
18983;SDS011;9626;52.552;13.436;2023-04-01T20:01:00;10.20;;;6.37;;
18983;SDS011;9626;52.552;13.436;2023-04-01T20:03:44;10.70;;;6.97;;
18983;SDS011;9626;52.552;13.436;2023-04-01T20:17:18;8.93;;;6.70;;
18983;SDS011;9626;52.552;13.436;2023-04-01T20:25:18;10.60;;;6.60;;
18983;SDS011;9626;52.552;13.436;2023-04-01T20:28:04;7.63;;;5.93;;
18983;SDS011;9626;52.552;13.436;2023-04-01T20:41:43;9.93;;;6.00;;
18983;SDS011;9626;52.552;13.436;2023-04-01T20:50:27;9.53;;;5.80;;
18983;SDS011;9626;52.552;13.436;2023-04-01T20:53:03;7.40;;;5.93;;
18983;SDS011;9626;52.552;13.436;2023-04-01T20:55:36;9.47;;;6.10;;
18983;SDS011;9626;52.552;13.436;2023-04-01T21:01:05;10.50;;;5.97;;
18983;SDS011;9626;52.552;13.436;2023-04-01T21:23:34;11.37;;;7.03;;
18983;SDS011;9626;52.552;13.436;2023-04-01T21:41:43;8.33;;;5.30;;
18983;SDS011;9626;52.552;13.436;2023-04-01T21:47:26;11.50;;;6.20;;
18983;SDS011;9626;52.552;13.436;2023-04-01T21:50:20;7.10;;;5.77;;
18983;SDS011;9626;52.552;13.436;2023-04-01T22:06:43;9.70;;;5.47;;
18983;SDS011;9626;52.552;13.436;2023-04-01T22:14:27;7.10;;;4.97;;
18983;SDS011;9626;52.552;13.436;2023-04-01T22:17:00;7.40;;;4.60;;
18983;SDS011;9626;52.552;13.436;2023-04-01T22:22:22;6.70;;;4.20;;
18983;SDS011;9626;52.552;13.436;2023-04-01T22:25:05;4.80;;;3.67;;
18983;SDS011;9626;52.552;13.436;2023-04-01T22:27:49;6.57;;;4.10;;
18983;SDS011;9626;52.552;13.436;2023-04-01T22:30:31;5.77;;;4.20;;
18983;SDS011;9626;52.552;13.436;2023-04-01T22:33:05;6.30;;;3.67;;
18983;SDS011;9626;52.552;13.436;2023-04-01T22:35:50;5.77;;;3.20;;
18983;SDS011;9626;52.552;13.436;2023-04-01T22:43:50;6.40;;;3.07;;
18983;SDS011;9626;52.552;13.436;2023-04-01T22:49:20;4.90;;;3.00;;
18983;SDS011;9626;52.552;13.436;2023-04-01T22:52:02;3.47;;;2.70;;
18983;SDS011;9626;52.552;13.436;2023-04-01T22:54:39;2.73;;;2.53;;
18983;SDS011;9626;52.552;13.436;2023-04-01T22:57:18;6.50;;;3.20;;
18983;SDS011;9626;52.552;13.436;2023-04-01T22:59:48;4.90;;;3.30;;
18983;SDS011;9626;52.552;13.436;2023-04-01T23:02:28;4.67;;;3.17;;
18983;SDS011;9626;52.552;13.436;2023-04-01T23:04:58;4.63;;;3.83;;
18983;SDS011;9626;52.552;13.436;2023-04-01T23:13:10;5.80;;;4.00;;
18983;SDS011;9626;52.552;13.436;2023-04-01T23:15:57;5.33;;;3.50;;
18983;SDS011;9626;52.552;13.436;2023-04-01T23:18:25;5.63;;;3.40;;
18983;SDS011;9626;52.552;13.436;2023-04-01T23:21:09;3.80;;;3.10;;
18983;SDS011;9626;52.552;13.436;2023-04-01T23:23:45;3.57;;;2.70;;
18983;SDS011;9626;52.552;13.436;2023-04-01T23:26:43;4.77;;;3.10;;
18983;SDS011;9626;52.552;13.436;2023-04-01T23:29:35;5.47;;;2.73;;
18983;SDS011;9626;52.552;13.436;2023-04-01T23:32:05;3.97;;;2.80;;
18983;SDS011;9626;52.552;13.436;2023-04-01T23:34:41;4.60;;;2.70;;
18983;SDS011;9626;52.552;13.436;2023-04-01T23:37:13;5.07;;;2.80;;
18983;SDS011;9626;52.552;13.436;2023-04-01T23:39:44;3.83;;;3.20;;
18983;SDS011;9626;52.552;13.436;2023-04-01T23:42:18;6.10;;;4.20;;
18983;SDS011;9626;52.552;13.436;2023-04-01T23:44:53;7.00;;;4.03;;
18983;SDS011;9626;52.552;13.436;2023-04-01T23:47:44;7.73;;;4.17;;
18983;SDS011;9626;52.552;13.436;2023-04-01T23:50:14;4.30;;;3.30;;
18983;SDS011;9626;52.552;13.436;2023-04-01T23:52:47;6.57;;;3.97;;
